Terminal Aerodrome Forecast
Issued by NWS

Home | Current Version | Previous Version | Text Only | Print | Product List | Glossary On
Versions: 1 2 3 4 5 6 7 8 9 10 11 12 13 14 15 16
000
FTUS45 KGGW 020228 AAA
TAFOLF
TAF AMD
KOLF 020228Z 0202/0224 07007KT P6SM VCSH SCT030 OVC060
     FM020600 VRB03KT 3SM BR OVC020
     FM021700 26006KT P6SM BKN025=

USA.gov is the U.S. government's official web portal to all federal, state and local government web resources and services.